sensor_id;sensor_type;location;lat;lon;timestamp;pressure;altitude;pressure_sealevel;temperature
69186;BMP280;56298;49.246;9.410;2023-10-31T00:01:45;97794.00;;;12.56
69186;BMP280;56298;49.246;9.410;2023-10-31T00:04:10;97802.72;;;12.47
69186;BMP280;56298;49.246;9.410;2023-10-31T00:06:35;97796.59;;;12.29
69186;BMP280;56298;49.246;9.410;2023-10-31T00:09:01;97796.22;;;12.26
69186;BMP280;56298;49.246;9.410;2023-10-31T00:11:26;97805.22;;;12.27
69186;BMP280;56298;49.246;9.410;2023-10-31T00:13:51;97801.75;;;12.19
69186;BMP280;56298;49.246;9.410;2023-10-31T00:16:16;97796.69;;;12.18
69186;BMP280;56298;49.246;9.410;2023-10-31T00:18:42;97788.47;;;12.14
69186;BMP280;56298;49.246;9.410;2023-10-31T00:21:07;97799.84;;;12.16
69186;BMP280;56298;49.246;9.410;2023-10-31T00:23:32;97812.00;;;12.15
69186;BMP280;56298;49.246;9.410;2023-10-31T00:25:58;97818.31;;;12.12
69186;BMP280;56298;49.246;9.410;2023-10-31T00:28:23;97812.78;;;12.16
69186;BMP280;56298;49.246;9.410;2023-10-31T00:30:48;97816.72;;;12.15
69186;BMP280;56298;49.246;9.410;2023-10-31T00:33:13;97819.91;;;12.09
69186;BMP280;56298;49.246;9.410;2023-10-31T00:35:39;97830.06;;;12.12
69186;BMP280;56298;49.246;9.410;2023-10-31T00:38:04;97828.91;;;12.14
69186;BMP280;56298;49.246;9.410;2023-10-31T00:40:29;97825.41;;;12.09
69186;BMP280;56298;49.246;9.410;2023-10-31T00:42:54;97834.47;;;12.03
69186;BMP280;56298;49.246;9.410;2023-10-31T00:45:23;97841.50;;;12.04
69186;BMP280;56298;49.246;9.410;2023-10-31T00:47:48;97847.78;;;12.08
69186;BMP280;56298;49.246;9.410;2023-10-31T00:50:13;97848.16;;;12.10
69186;BMP280;56298;49.246;9.410;2023-10-31T00:52:39;97837.53;;;12.16
69186;BMP280;56298;49.246;9.410;2023-10-31T00:55:04;97835.94;;;12.11
69186;BMP280;56298;49.246;9.410;2023-10-31T00:57:30;97834.41;;;12.14
69186;BMP280;56298;49.246;9.410;2023-10-31T00:59:55;97840.63;;;12.18
69186;BMP280;56298;49.246;9.410;2023-10-31T01:02:20;97842.63;;;12.14
69186;BMP280;56298;49.246;9.410;2023-10-31T01:04:45;97844.53;;;12.20
69186;BMP280;56298;49.246;9.410;2023-10-31T01:07:11;97854.34;;;12.25
69186;BMP280;56298;49.246;9.410;2023-10-31T01:09:38;97850.03;;;12.20
69186;BMP280;56298;49.246;9.410;2023-10-31T01:12:04;97845.38;;;12.14
69186;BMP280;56298;49.246;9.410;2023-10-31T01:14:29;97844.66;;;12.02
69186;BMP280;56298;49.246;9.410;2023-10-31T01:16:55;97847.38;;;12.06
69186;BMP280;56298;49.246;9.410;2023-10-31T01:19:20;97852.09;;;12.05
69186;BMP280;56298;49.246;9.410;2023-10-31T01:21:45;97854.88;;;12.02
69186;BMP280;56298;49.246;9.410;2023-10-31T01:24:10;97839.19;;;12.02
69186;BMP280;56298;49.246;9.410;2023-10-31T01:26:36;97851.78;;;11.92
69186;BMP280;56298;49.246;9.410;2023-10-31T01:29:01;97849.13;;;11.74
69186;BMP280;56298;49.246;9.410;2023-10-31T01:31:26;97859.34;;;11.74
69186;BMP280;56298;49.246;9.410;2023-10-31T01:33:52;97860.09;;;11.78
69186;BMP280;56298;49.246;9.410;2023-10-31T01:36:17;97865.56;;;11.81
69186;BMP280;56298;49.246;9.410;2023-10-31T01:38:43;97853.44;;;11.75
69186;BMP280;56298;49.246;9.410;2023-10-31T01:41:08;97841.69;;;11.67
69186;BMP280;56298;49.246;9.410;2023-10-31T01:43:36;97835.84;;;11.58
69186;BMP280;56298;49.246;9.410;2023-10-31T01:46:01;97838.66;;;11.47
69186;BMP280;56298;49.246;9.410;2023-10-31T01:48:29;97839.03;;;11.42
69186;BMP280;56298;49.246;9.410;2023-10-31T01:50:56;97853.97;;;11.37
69186;BMP280;56298;49.246;9.410;2023-10-31T01:53:22;97856.34;;;11.32
69186;BMP280;56298;49.246;9.410;2023-10-31T01:55:48;97863.78;;;11.27
69186;BMP280;56298;49.246;9.410;2023-10-31T01:58:14;97875.94;;;11.34
69186;BMP280;56298;49.246;9.410;2023-10-31T02:00:40;97885.34;;;11.36
69186;BMP280;56298;49.246;9.410;2023-10-31T02:03:06;97895.94;;;11.31
69186;BMP280;56298;49.246;9.410;2023-10-31T02:05:33;97896.72;;;11.35
69186;BMP280;56298;49.246;9.410;2023-10-31T02:07:59;97895.91;;;11.38
69186;BMP280;56298;49.246;9.410;2023-10-31T02:10:25;97901.41;;;11.34
69186;BMP280;56298;49.246;9.410;2023-10-31T02:12:50;97903.75;;;11.28
69186;BMP280;56298;49.246;9.410;2023-10-31T02:15:15;97915.16;;;11.27
69186;BMP280;56298;49.246;9.410;2023-10-31T02:17:40;97926.94;;;11.20
69186;BMP280;56298;49.246;9.410;2023-10-31T02:20:06;97933.97;;;11.14
69186;BMP280;56298;49.246;9.410;2023-10-31T02:22:32;97931.22;;;11.14
69186;BMP280;56298;49.246;9.410;2023-10-31T02:24:57;97944.94;;;11.14
69186;BMP280;56298;49.246;9.410;2023-10-31T02:27:22;97941.78;;;11.19
69186;BMP280;56298;49.246;9.410;2023-10-31T02:29:47;97939.84;;;11.12
69186;BMP280;56298;49.246;9.410;2023-10-31T02:32:13;97928.91;;;11.09
69186;BMP280;56298;49.246;9.410;2023-10-31T02:34:38;97926.91;;;11.17
69186;BMP280;56298;49.246;9.410;2023-10-31T02:37:03;97936.34;;;11.16
69186;BMP280;56298;49.246;9.410;2023-10-31T02:39:28;97932.81;;;11.08
69186;BMP280;56298;49.246;9.410;2023-10-31T02:41:54;97943.00;;;11.04
69186;BMP280;56298;49.246;9.410;2023-10-31T02:44:19;97946.13;;;10.98
69186;BMP280;56298;49.246;9.410;2023-10-31T02:46:44;97941.03;;;11.01
69186;BMP280;56298;49.246;9.410;2023-10-31T02:49:09;97936.75;;;10.92
69186;BMP280;56298;49.246;9.410;2023-10-31T02:51:35;97949.66;;;10.84
69186;BMP280;56298;49.246;9.410;2023-10-31T02:54:00;97944.16;;;10.84
69186;BMP280;56298;49.246;9.410;2023-10-31T02:56:26;97939.47;;;10.81
69186;BMP280;56298;49.246;9.410;2023-10-31T02:58:51;97957.06;;;10.77
69186;BMP280;56298;49.246;9.410;2023-10-31T03:01:16;97956.31;;;10.83
69186;BMP280;56298;49.246;9.410;2023-10-31T03:03:43;97963.34;;;10.84
69186;BMP280;56298;49.246;9.410;2023-10-31T03:06:08;97966.50;;;10.87
69186;BMP280;56298;49.246;9.410;2023-10-31T03:08:33;97966.50;;;10.83
69186;BMP280;56298;49.246;9.410;2023-10-31T03:10:58;97966.47;;;10.79
69186;BMP280;56298;49.246;9.410;2023-10-31T03:13:24;97977.84;;;10.81
69186;BMP280;56298;49.246;9.410;2023-10-31T03:15:49;97979.81;;;10.84
69186;BMP280;56298;49.246;9.410;2023-10-31T03:18:14;97976.66;;;10.86
69186;BMP280;56298;49.246;9.410;2023-10-31T03:20:40;97972.00;;;10.83
69186;BMP280;56298;49.246;9.410;2023-10-31T03:23:05;97972.34;;;10.85
69186;BMP280;56298;49.246;9.410;2023-10-31T03:25:31;97974.34;;;10.88
69186;BMP280;56298;49.246;9.410;2023-10-31T03:27:56;97971.59;;;10.92
69186;BMP280;56298;49.246;9.410;2023-10-31T03:30:21;97971.19;;;10.93
69186;BMP280;56298;49.246;9.410;2023-10-31T03:32:47;97979.03;;;10.88
69186;BMP280;56298;49.246;9.410;2023-10-31T03:35:12;97979.78;;;10.81
69186;BMP280;56298;49.246;9.410;2023-10-31T03:37:37;97977.44;;;10.72
69186;BMP280;56298;49.246;9.410;2023-10-31T03:40:08;97973.53;;;10.66
69186;BMP280;56298;49.246;9.410;2023-10-31T03:42:33;97977.84;;;10.63
69186;BMP280;56298;49.246;9.410;2023-10-31T03:44:59;97977.03;;;10.59
69186;BMP280;56298;49.246;9.410;2023-10-31T03:47:24;97989.56;;;10.64
69186;BMP280;56298;49.246;9.410;2023-10-31T03:49:49;97992.72;;;10.66
69186;BMP280;56298;49.246;9.410;2023-10-31T03:52:15;97990.75;;;10.63
69186;BMP280;56298;49.246;9.410;2023-10-31T03:54:40;97995.06;;;10.67
69186;BMP280;56298;49.246;9.410;2023-10-31T03:57:05;98001.28;;;10.61
69186;BMP280;56298;49.246;9.410;2023-10-31T03:59:30;98010.31;;;10.57
69186;BMP280;56298;49.246;9.410;2023-10-31T04:01:56;98010.31;;;10.65
69186;BMP280;56298;49.246;9.410;2023-10-31T04:04:21;98011.53;;;10.71
69186;BMP280;56298;49.246;9.410;2023-10-31T04:06:46;98013.88;;;10.76
69186;BMP280;56298;49.246;9.410;2023-10-31T04:09:11;98017.81;;;10.75
69186;BMP280;56298;49.246;9.410;2023-10-31T04:11:37;98011.94;;;10.84
69186;BMP280;56298;49.246;9.410;2023-10-31T04:14:03;98018.59;;;10.90
69186;BMP280;56298;49.246;9.410;2023-10-31T04:16:29;98011.56;;;10.93
69186;BMP280;56298;49.246;9.410;2023-10-31T04:18:54;98008.41;;;10.94
69186;BMP280;56298;49.246;9.410;2023-10-31T04:21:19;98008.41;;;10.87
69186;BMP280;56298;49.246;9.410;2023-10-31T04:23:45;98005.69;;;10.91
69186;BMP280;56298;49.246;9.410;2023-10-31T04:26:10;97999.78;;;10.81
69186;BMP280;56298;49.246;9.410;2023-10-31T04:28:35;98010.75;;;10.78
69186;BMP280;56298;49.246;9.410;2023-10-31T04:31:00;98000.16;;;10.80
69186;BMP280;56298;49.246;9.410;2023-10-31T04:33:26;98008.00;;;10.74
69186;BMP280;56298;49.246;9.410;2023-10-31T04:35:51;98009.59;;;10.75
69186;BMP280;56298;49.246;9.410;2023-10-31T04:38:16;98010.75;;;10.78
69186;BMP280;56298;49.246;9.410;2023-10-31T04:40:41;98016.22;;;10.78
69186;BMP280;56298;49.246;9.410;2023-10-31T04:43:07;98013.88;;;10.76
69186;BMP280;56298;49.246;9.410;2023-10-31T04:45:33;98023.25;;;10.71
69186;BMP280;56298;49.246;9.410;2023-10-31T04:47:58;98024.03;;;10.68
69186;BMP280;56298;49.246;9.410;2023-10-31T04:50:23;98031.09;;;10.73
69186;BMP280;56298;49.246;9.410;2023-10-31T04:52:48;98031.50;;;10.82
69186;BMP280;56298;49.246;9.410;2023-10-31T04:55:14;98026.81;;;10.87
69186;BMP280;56298;49.246;9.410;2023-10-31T04:57:39;98036.59;;;10.88
69186;BMP280;56298;49.246;9.410;2023-10-31T05:00:05;98042.09;;;10.88
69186;BMP280;56298;49.246;9.410;2023-10-31T05:02:31;98039.75;;;10.90
69186;BMP280;56298;49.246;9.410;2023-10-31T05:04:57;98042.50;;;10.97
69186;BMP280;56298;49.246;9.410;2023-10-31T05:07:23;98033.09;;;10.98
69186;BMP280;56298;49.246;9.410;2023-10-31T05:09:49;98036.63;;;10.95
69186;BMP280;56298;49.246;9.410;2023-10-31T05:12:14;98028.41;;;10.95
69186;BMP280;56298;49.246;9.410;2023-10-31T05:14:40;98023.31;;;11.04
69186;BMP280;56298;49.246;9.410;2023-10-31T05:17:05;98033.50;;;11.00
69186;BMP280;56298;49.246;9.410;2023-10-31T05:19:30;98036.63;;;10.91
69186;BMP280;56298;49.246;9.410;2023-10-31T05:21:56;98044.44;;;10.89
69186;BMP280;56298;49.246;9.410;2023-10-31T05:24:21;98044.81;;;10.88
69186;BMP280;56298;49.246;9.410;2023-10-31T05:26:46;98049.53;;;10.94
69186;BMP280;56298;49.246;9.410;2023-10-31T05:29:11;98057.00;;;10.97
69186;BMP280;56298;49.246;9.410;2023-10-31T05:31:37;98057.75;;;10.94
69186;BMP280;56298;49.246;9.410;2023-10-31T05:34:02;98055.44;;;10.96
69186;BMP280;56298;49.246;9.410;2023-10-31T05:36:31;98059.75;;;10.97
69186;BMP280;56298;49.246;9.410;2023-10-31T05:38:57;98062.88;;;10.96
69186;BMP280;56298;49.246;9.410;2023-10-31T05:41:22;98057.75;;;10.94
69186;BMP280;56298;49.246;9.410;2023-10-31T05:43:48;98064.84;;;10.92
69186;BMP280;56298;49.246;9.410;2023-10-31T05:46:13;98067.56;;;10.92
69186;BMP280;56298;49.246;9.410;2023-10-31T05:48:40;98067.94;;;10.87
69186;BMP280;56298;49.246;9.410;2023-10-31T05:51:17;98070.69;;;10.90
69186;BMP280;56298;49.246;9.410;2023-10-31T05:53:44;98073.06;;;10.92
69186;BMP280;56298;49.246;9.410;2023-10-31T05:56:12;98082.47;;;10.91
69186;BMP280;56298;49.246;9.410;2023-10-31T05:58:39;98085.59;;;10.93
69186;BMP280;56298;49.246;9.410;2023-10-31T06:01:05;98080.47;;;10.88
69186;BMP280;56298;49.246;9.410;2023-10-31T06:03:30;98082.84;;;10.89
69186;BMP280;56298;49.246;9.410;2023-10-31T06:05:56;98085.97;;;10.88
69186;BMP280;56298;49.246;9.410;2023-10-31T06:08:21;98089.50;;;10.88
69186;BMP280;56298;49.246;9.410;2023-10-31T06:10:49;98089.06;;;10.86
69186;BMP280;56298;49.246;9.410;2023-10-31T06:13:14;98095.00;;;10.92
69186;BMP280;56298;49.246;9.410;2023-10-31T06:15:39;98091.47;;;10.91
69186;BMP280;56298;49.246;9.410;2023-10-31T06:18:04;98093.41;;;10.94
69186;BMP280;56298;49.246;9.410;2023-10-31T06:20:30;98093.44;;;11.02
69186;BMP280;56298;49.246;9.410;2023-10-31T06:22:56;98099.31;;;10.96
69186;BMP280;56298;49.246;9.410;2023-10-31T06:25:21;98106.38;;;11.05
69186;BMP280;56298;49.246;9.410;2023-10-31T06:27:46;98105.22;;;11.06
69186;BMP280;56298;49.246;9.410;2023-10-31T06:30:12;98108.72;;;11.03
69186;BMP280;56298;49.246;9.410;2023-10-31T06:32:38;98120.47;;;11.03
69186;BMP280;56298;49.246;9.410;2023-10-31T06:35:06;98128.31;;;11.05
69186;BMP280;56298;49.246;9.410;2023-10-31T06:37:31;98125.63;;;11.08
69186;BMP280;56298;49.246;9.410;2023-10-31T06:39:56;98134.22;;;11.10
69186;BMP280;56298;49.246;9.410;2023-10-31T06:42:22;98131.84;;;11.05
69186;BMP280;56298;49.246;9.410;2023-10-31T06:44:47;98129.13;;;11.05
69186;BMP280;56298;49.246;9.410;2023-10-31T06:47:12;98141.28;;;11.08
69186;BMP280;56298;49.246;9.410;2023-10-31T06:49:37;98142.06;;;11.16
69186;BMP280;56298;49.246;9.410;2023-10-31T06:52:04;98148.31;;;11.12
69186;BMP280;56298;49.246;9.410;2023-10-31T06:54:30;98144.03;;;11.19
69186;BMP280;56298;49.246;9.410;2023-10-31T06:56:56;98146.03;;;11.29
69186;BMP280;56298;49.246;9.410;2023-10-31T06:59:22;98149.94;;;11.35
69186;BMP280;56298;49.246;9.410;2023-10-31T07:01:47;98147.63;;;11.41
69186;BMP280;56298;49.246;9.410;2023-10-31T07:04:12;98162.91;;;11.53
69186;BMP280;56298;49.246;9.410;2023-10-31T07:06:38;98169.22;;;11.53
69186;BMP280;56298;49.246;9.410;2023-10-31T07:09:03;98172.34;;;11.48
69186;BMP280;56298;49.246;9.410;2023-10-31T07:11:31;98164.88;;;11.49
69186;BMP280;56298;49.246;9.410;2023-10-31T07:14:01;98168.00;;;11.36
69186;BMP280;56298;49.246;9.410;2023-10-31T07:16:27;98177.75;;;11.26
69186;BMP280;56298;49.246;9.410;2023-10-31T07:18:53;98177.34;;;11.13
69186;BMP280;56298;49.246;9.410;2023-10-31T07:21:18;98184.00;;;11.09
69186;BMP280;56298;49.246;9.410;2023-10-31T07:23:43;98180.06;;;10.99
69186;BMP280;56298;49.246;9.410;2023-10-31T07:26:09;98182.78;;;11.03
69186;BMP280;56298;49.246;9.410;2023-10-31T07:28:35;98184.78;;;11.06
69186;BMP280;56298;49.246;9.410;2023-10-31T07:31:00;98186.69;;;11.02
69186;BMP280;56298;49.246;9.410;2023-10-31T07:33:25;98197.28;;;10.99
69186;BMP280;56298;49.246;9.410;2023-10-31T07:35:52;98204.72;;;10.99
69186;BMP280;56298;49.246;9.410;2023-10-31T07:41:05;98210.22;;;10.99
69186;BMP280;56298;49.246;9.410;2023-10-31T07:43:30;98204.38;;;11.08
69186;BMP280;56298;49.246;9.410;2023-10-31T07:45:55;98212.56;;;11.01
69186;BMP280;56298;49.246;9.410;2023-10-31T07:48:20;98209.03;;;10.96
69186;BMP280;56298;49.246;9.410;2023-10-31T07:50:46;98210.91;;;10.85
69186;BMP280;56298;49.246;9.410;2023-10-31T07:53:11;98216.03;;;10.90
69186;BMP280;56298;49.246;9.410;2023-10-31T07:55:36;98210.59;;;10.97
69186;BMP280;56298;49.246;9.410;2023-10-31T07:58:02;98208.72;;;11.16
69186;BMP280;56298;49.246;9.410;2023-10-31T08:00:27;98219.34;;;11.32
69186;BMP280;56298;49.246;9.410;2023-10-31T08:02:52;98222.47;;;11.38
69186;BMP280;56298;49.246;9.410;2023-10-31T08:05:17;98231.09;;;11.33
69186;BMP280;56298;49.246;9.410;2023-10-31T08:07:43;98235.03;;;11.32
69186;BMP280;56298;49.246;9.410;2023-10-31T08:10:09;98235.81;;;11.43
69186;BMP280;56298;49.246;9.410;2023-10-31T08:12:34;98237.03;;;11.49
69186;BMP280;56298;49.246;9.410;2023-10-31T08:15:00;98237.41;;;11.51
69186;BMP280;56298;49.246;9.410;2023-10-31T08:17:26;98244.13;;;11.61
69186;BMP280;56298;49.246;9.410;2023-10-31T08:19:51;98255.91;;;11.69
69186;BMP280;56298;49.246;9.410;2023-10-31T08:22:16;98265.34;;;11.82
69186;BMP280;56298;49.246;9.410;2023-10-31T08:24:42;98256.34;;;11.93
69186;BMP280;56298;49.246;9.410;2023-10-31T08:27:07;98261.03;;;11.96
69186;BMP280;56298;49.246;9.410;2023-10-31T08:29:32;98269.69;;;12.02
69186;BMP280;56298;49.246;9.410;2023-10-31T08:31:58;98264.97;;;12.02
69186;BMP280;56298;49.246;9.410;2023-10-31T08:34:23;98277.91;;;12.02
69186;BMP280;56298;49.246;9.410;2023-10-31T08:36:48;98285.38;;;12.01
69186;BMP280;56298;49.246;9.410;2023-10-31T08:39:14;98290.47;;;11.99
69186;BMP280;56298;49.246;9.410;2023-10-31T08:41:55;98290.88;;;12.01
69186;BMP280;56298;49.246;9.410;2023-10-31T08:44:21;98297.94;;;12.02
69186;BMP280;56298;49.246;9.410;2023-10-31T08:46:47;98298.28;;;11.82
69186;BMP280;56298;49.246;9.410;2023-10-31T08:49:12;98303.41;;;11.91
69186;BMP280;56298;49.246;9.410;2023-10-31T08:51:38;98301.50;;;12.03
69186;BMP280;56298;49.246;9.410;2023-10-31T08:54:03;98312.06;;;12.01
69186;BMP280;56298;49.246;9.410;2023-10-31T08:56:29;98308.94;;;12.13
69186;BMP280;56298;49.246;9.410;2023-10-31T08:58:54;98312.09;;;12.22
69186;BMP280;56298;49.246;9.410;2023-10-31T09:01:19;98314.03;;;12.22
69186;BMP280;56298;49.246;9.410;2023-10-31T09:03:45;98307.78;;;12.36
69186;BMP280;56298;49.246;9.410;2023-10-31T09:06:10;98311.72;;;12.35
69186;BMP280;56298;49.246;9.410;2023-10-31T09:08:36;98316.38;;;12.42
69186;BMP280;56298;49.246;9.410;2023-10-31T09:11:03;98316.78;;;12.54
69186;BMP280;56298;49.246;9.410;2023-10-31T09:13:28;98319.53;;;12.54
69186;BMP280;56298;49.246;9.410;2023-10-31T09:15:54;98319.13;;;12.63
69186;BMP280;56298;49.246;9.410;2023-10-31T09:18:19;98317.56;;;12.66
69186;BMP280;56298;49.246;9.410;2023-10-31T09:20:44;98311.63;;;12.86
69186;BMP280;56298;49.246;9.410;2023-10-31T09:23:10;98317.16;;;12.89
69186;BMP280;56298;49.246;9.410;2023-10-31T09:25:35;98321.03;;;13.03
69186;BMP280;56298;49.246;9.410;2023-10-31T09:28:00;98321.03;;;13.17
69186;BMP280;56298;49.246;9.410;2023-10-31T09:30:26;98312.28;;;13.37
69186;BMP280;56298;49.246;9.410;2023-10-31T09:32:51;98316.84;;;13.65
69186;BMP280;56298;49.246;9.410;2023-10-31T09:35:17;98318.75;;;13.79
69186;BMP280;56298;49.246;9.410;2023-10-31T09:37:42;98323.09;;;13.77
69186;BMP280;56298;49.246;9.410;2023-10-31T09:40:09;98326.19;;;13.82
69186;BMP280;56298;49.246;9.410;2023-10-31T09:42:35;98326.03;;;14.08
69186;BMP280;56298;49.246;9.410;2023-10-31T09:45:00;98325.56;;;14.17
69186;BMP280;56298;49.246;9.410;2023-10-31T09:47:25;98328.94;;;14.39
69186;BMP280;56298;49.246;9.410;2023-10-31T09:49:50;98322.09;;;14.58
69186;BMP280;56298;49.246;9.410;2023-10-31T09:52:17;98319.72;;;14.57
69186;BMP280;56298;49.246;9.410;2023-10-31T09:54:42;98320.81;;;14.66
69186;BMP280;56298;49.246;9.410;2023-10-31T09:57:08;98320.91;;;14.59
69186;BMP280;56298;49.246;9.410;2023-10-31T09:59:34;98319.66;;;14.64
69186;BMP280;56298;49.246;9.410;2023-10-31T10:01:59;98318.94;;;14.56
69186;BMP280;56298;49.246;9.410;2023-10-31T10:04:26;98308.22;;;14.65
69186;BMP280;56298;49.246;9.410;2023-10-31T10:06:58;98306.84;;;14.85
69186;BMP280;56298;49.246;9.410;2023-10-31T10:09:24;98300.28;;;14.71
69186;BMP280;56298;49.246;9.410;2023-10-31T10:11:51;98308.00;;;14.84
69186;BMP280;56298;49.246;9.410;2023-10-31T10:14:17;98303.06;;;15.02
69186;BMP280;56298;49.246;9.410;2023-10-31T10:16:42;98308.00;;;14.84
69186;BMP280;56298;49.246;9.410;2023-10-31T10:19:18;98305.69;;;14.82
69186;BMP280;56298;49.246;9.410;2023-10-31T10:21:58;98306.31;;;14.59
69186;BMP280;56298;49.246;9.410;2023-10-31T10:24:24;98311.09;;;14.51
69186;BMP280;56298;49.246;9.410;2023-10-31T10:26:50;98323.22;;;14.61
69186;BMP280;56298;49.246;9.410;2023-10-31T10:29:16;98326.44;;;14.56
69186;BMP280;56298;49.246;9.410;2023-10-31T10:31:42;98321.19;;;14.68
69186;BMP280;56298;49.246;9.410;2023-10-31T10:34:12;98321.19;;;14.68
69186;BMP280;56298;49.246;9.410;2023-10-31T10:36:38;98325.25;;;14.57
69186;BMP280;56298;49.246;9.410;2023-10-31T10:39:05;98330.03;;;14.49
69186;BMP280;56298;49.246;9.410;2023-10-31T10:41:35;98321.28;;;14.58
69186;BMP280;56298;49.246;9.410;2023-10-31T10:44:05;98320.25;;;14.82
69186;BMP280;56298;49.246;9.410;2023-10-31T10:46:35;98317.63;;;15.06
69186;BMP280;56298;49.246;9.410;2023-10-31T10:49:05;98320.22;;;15.21
69186;BMP280;56298;49.246;9.410;2023-10-31T10:51:48;98326.00;;;15.30
69186;BMP280;56298;49.246;9.410;2023-10-31T10:54:20;98317.69;;;15.34
69186;BMP280;56298;49.246;9.410;2023-10-31T10:56:54;98321.28;;;15.31
69186;BMP280;56298;49.246;9.410;2023-10-31T10:59:31;98319.41;;;14.89
69186;BMP280;56298;49.246;9.410;2023-10-31T11:01:59;98320.34;;;14.75
69186;BMP280;56298;49.246;9.410;2023-10-31T11:04:26;98322.28;;;14.78
69186;BMP280;56298;49.246;9.410;2023-10-31T11:06:51;98319.19;;;14.73
69186;BMP280;56298;49.246;9.410;2023-10-31T11:09:17;98330.25;;;14.73
69186;BMP280;56298;49.246;9.410;2023-10-31T11:11:43;98323.56;;;14.66
69186;BMP280;56298;49.246;9.410;2023-10-31T11:14:14;98332.28;;;14.65
69186;BMP280;56298;49.246;9.410;2023-10-31T11:16:52;98335.56;;;14.91
69186;BMP280;56298;49.246;9.410;2023-10-31T11:19:18;98338.22;;;14.98
69186;BMP280;56298;49.246;9.410;2023-10-31T11:22:01;98341.00;;;14.98
69186;BMP280;56298;49.246;9.410;2023-10-31T11:24:28;98340.56;;;15.00
69186;BMP280;56298;49.246;9.410;2023-10-31T11:26:58;98339.75;;;15.03
69186;BMP280;56298;49.246;9.410;2023-10-31T11:29:24;98348.66;;;15.18
69186;BMP280;56298;49.246;9.410;2023-10-31T11:31:49;98341.25;;;15.11
69186;BMP280;56298;49.246;9.410;2023-10-31T11:34:19;98341.00;;;14.98
69186;BMP280;56298;49.246;9.410;2023-10-31T11:36:45;98347.13;;;15.13
69186;BMP280;56298;49.246;9.410;2023-10-31T11:39:13;98341.75;;;15.33
69186;BMP280;56298;49.246;9.410;2023-10-31T11:41:39;98338.81;;;15.48
69186;BMP280;56298;49.246;9.410;2023-10-31T11:44:05;98331.31;;;15.48
69186;BMP280;56298;49.246;9.410;2023-10-31T11:46:30;98355.22;;;15.31
69186;BMP280;56298;49.246;9.410;2023-10-31T11:48:56;98351.88;;;15.13
69186;BMP280;56298;49.246;9.410;2023-10-31T11:51:22;98355.16;;;15.00
69186;BMP280;56298;49.246;9.410;2023-10-31T11:53:48;98353.38;;;14.82
69186;BMP280;56298;49.246;9.410;2023-10-31T11:56:15;98365.69;;;14.74
69186;BMP280;56298;49.246;9.410;2023-10-31T11:58:40;98367.75;;;14.63
69186;BMP280;56298;49.246;9.410;2023-10-31T12:01:08;98373.75;;;14.50
69186;BMP280;56298;49.246;9.410;2023-10-31T12:03:41;98371.84;;;14.47
69186;BMP280;56298;49.246;9.410;2023-10-31T12:06:07;98377.47;;;14.33
69186;BMP280;56298;49.246;9.410;2023-10-31T12:08:35;98370.78;;;14.30
69186;BMP280;56298;49.246;9.410;2023-10-31T12:13:34;98387.09;;;14.03
69186;BMP280;56298;49.246;9.410;2023-10-31T12:16:00;98385.31;;;13.67
69186;BMP280;56298;49.246;9.410;2023-10-31T12:18:28;98385.38;;;13.52
69186;BMP280;56298;49.246;9.410;2023-10-31T12:20:54;98391.28;;;13.51
69186;BMP280;56298;49.246;9.410;2023-10-31T12:23:20;98388.88;;;13.60
69186;BMP280;56298;49.246;9.410;2023-10-31T12:25:46;98393.91;;;13.80
69186;BMP280;56298;49.246;9.410;2023-10-31T12:28:19;98390.25;;;13.98
69186;BMP280;56298;49.246;9.410;2023-10-31T12:30:45;98393.66;;;14.23
69186;BMP280;56298;49.246;9.410;2023-10-31T12:33:14;98393.94;;;14.40
69186;BMP280;56298;49.246;9.410;2023-10-31T12:35:40;98398.53;;;14.58
69186;BMP280;56298;49.246;9.410;2023-10-31T12:38:07;98393.38;;;14.63
69186;BMP280;56298;49.246;9.410;2023-10-31T12:40:33;98400.69;;;14.81
69186;BMP280;56298;49.246;9.410;2023-10-31T12:42:59;98398.72;;;14.81
69186;BMP280;56298;49.246;9.410;2023-10-31T12:45:24;98397.78;;;14.99
69186;BMP280;56298;49.246;9.410;2023-10-31T12:48:06;98404.91;;;14.96
69186;BMP280;56298;49.246;9.410;2023-10-31T12:50:33;98403.75;;;14.94
69186;BMP280;56298;49.246;9.410;2023-10-31T12:52:59;98396.63;;;14.96
69186;BMP280;56298;49.246;9.410;2023-10-31T12:55:26;98398.09;;;15.05
69186;BMP280;56298;49.246;9.410;2023-10-31T12:57:53;98392.00;;;15.24
69186;BMP280;56298;49.246;9.410;2023-10-31T13:00:20;98393.25;;;15.51
69186;BMP280;56298;49.246;9.410;2023-10-31T13:02:52;98397.06;;;15.61
69186;BMP280;56298;49.246;9.410;2023-10-31T13:05:25;98395.91;;;15.58
69186;BMP280;56298;49.246;9.410;2023-10-31T13:07:52;98398.06;;;15.78
69186;BMP280;56298;49.246;9.410;2023-10-31T13:10:27;98399.69;;;15.72
69186;BMP280;56298;49.246;9.410;2023-10-31T13:12:54;98411.16;;;15.70
69186;BMP280;56298;49.246;9.410;2023-10-31T13:15:21;98412.31;;;15.73
69186;BMP280;56298;49.246;9.410;2023-10-31T13:17:51;98413.22;;;15.62
69186;BMP280;56298;49.246;9.410;2023-10-31T13:20:18;98413.34;;;15.20
69186;BMP280;56298;49.246;9.410;2023-10-31T13:22:44;98417.38;;;14.66
69186;BMP280;56298;49.246;9.410;2023-10-31T13:25:11;98417.72;;;14.19
69186;BMP280;56298;49.246;9.410;2023-10-31T13:27:37;98426.97;;;13.80
69186;BMP280;56298;49.246;9.410;2023-10-31T13:30:07;98429.00;;;13.61
69186;BMP280;56298;49.246;9.410;2023-10-31T13:32:33;98427.03;;;13.65
69186;BMP280;56298;49.246;9.410;2023-10-31T13:34:59;98427.81;;;13.77
69186;BMP280;56298;49.246;9.410;2023-10-31T13:37:25;98426.53;;;13.92
69186;BMP280;56298;49.246;9.410;2023-10-31T13:39:50;98419.84;;;13.97
69186;BMP280;56298;49.246;9.410;2023-10-31T13:42:15;98431.28;;;13.88
69186;BMP280;56298;49.246;9.410;2023-10-31T13:44:41;98432.50;;;13.84
69186;BMP280;56298;49.246;9.410;2023-10-31T13:47:06;98427.38;;;13.82
69186;BMP280;56298;49.246;9.410;2023-10-31T13:49:32;98432.44;;;13.91
69186;BMP280;56298;49.246;9.410;2023-10-31T13:51:57;98440.28;;;14.00
69186;BMP280;56298;49.246;9.410;2023-10-31T13:54:22;98431.94;;;14.14
69186;BMP280;56298;49.246;9.410;2023-10-31T13:56:48;98432.22;;;14.31
69186;BMP280;56298;49.246;9.410;2023-10-31T13:59:13;98438.38;;;14.49
69186;BMP280;56298;49.246;9.410;2023-10-31T14:01:40;98426.53;;;14.56
69186;BMP280;56298;49.246;9.410;2023-10-31T14:04:07;98429.25;;;14.63
69186;BMP280;56298;49.246;9.410;2023-10-31T14:06:33;98436.72;;;14.63
69186;BMP280;56298;49.246;9.410;2023-10-31T14:09:00;98442.63;;;14.61